createdAt,value
2022-12-24T00:00:22.217Z,4.00
2022-12-24T00:00:52.214Z,3.50
2022-12-24T00:01:22.089Z,3.60
2022-12-24T00:01:52.015Z,3.70
2022-12-24T00:02:22.161Z,3.90
2022-12-24T00:02:51.984Z,3.90
2022-12-24T00:03:22.009Z,3.80
2022-12-24T00:03:51.974Z,3.60
2022-12-24T00:04:21.800Z,3.50
2022-12-24T00:04:55.672Z,3.60
2022-12-24T00:05:22.684Z,3.60
2022-12-24T00:05:51.673Z,3.90
2022-12-24T00:06:21.615Z,4.00
2022-12-24T00:06:51.555Z,3.70
2022-12-24T00:07:21.541Z,4.30
2022-12-24T00:07:51.474Z,3.60
2022-12-24T00:08:21.472Z,3.60
2022-12-24T00:08:51.430Z,3.40
2022-12-24T00:09:21.364Z,3.70
2022-12-24T00:09:51.318Z,3.80
2022-12-24T00:10:21.291Z,4.00
2022-12-24T00:10:51.230Z,4.10
2022-12-24T00:11:21.205Z,4.00
2022-12-24T00:11:51.164Z,4.10
2022-12-24T00:12:21.141Z,4.00
2022-12-24T00:12:51.065Z,3.70
2022-12-24T00:13:21.090Z,3.90
2022-12-24T00:13:51.009Z,4.20
2022-12-24T00:14:20.943Z,3.60
2022-12-24T00:14:50.899Z,3.90
2022-12-24T00:15:20.853Z,3.70
2022-12-24T00:15:50.825Z,3.70
2022-12-24T00:16:20.819Z,3.60
2022-12-24T00:16:50.853Z,3.50
2022-12-24T00:17:20.689Z,3.80
2022-12-24T00:17:50.640Z,3.90
2022-12-24T00:18:20.610Z,3.80
2022-12-24T00:18:50.572Z,4.00
2022-12-24T00:19:20.549Z,3.50
2022-12-24T00:19:50.515Z,3.90
2022-12-24T00:20:20.465Z,3.70
2022-12-24T00:20:50.390Z,3.70
2022-12-24T00:21:20.353Z,4.10
2022-12-24T00:21:50.304Z,3.80
2022-12-24T00:22:20.273Z,3.80
2022-12-24T00:22:50.222Z,4.00
2022-12-24T00:23:20.199Z,4.20
2022-12-24T00:23:50.161Z,3.80
2022-12-24T00:24:20.110Z,4.10
2022-12-24T00:24:50.268Z,4.00
2022-12-24T00:25:20.689Z,4.00
2022-12-24T00:25:49.981Z,4.00
2022-12-24T00:26:20.100Z,4.00
2022-12-24T00:26:49.879Z,4.20
2022-12-24T00:27:19.867Z,3.60
2022-12-24T00:27:49.799Z,4.00
2022-12-24T00:28:19.784Z,3.90
2022-12-24T00:28:49.726Z,4.10
2022-12-24T00:29:19.676Z,3.80
2022-12-24T00:29:49.644Z,4.00
2022-12-24T00:30:19.588Z,4.00
2022-12-24T00:30:49.614Z,3.80
2022-12-24T00:31:19.639Z,3.80
2022-12-24T00:31:49.521Z,3.70
2022-12-24T00:32:19.473Z,4.10
2022-12-24T00:32:49.420Z,4.10
2022-12-24T00:33:24.308Z,3.90
2022-12-24T00:33:50.358Z,4.30
2022-12-24T00:34:19.287Z,3.70
2022-12-24T00:34:49.254Z,3.90
2022-12-24T00:35:19.285Z,3.70
2022-12-24T00:35:49.165Z,4.00
2022-12-24T00:36:19.116Z,4.20
2022-12-24T00:36:49.087Z,3.90
2022-12-24T00:37:19.039Z,3.90
2022-12-24T00:37:48.997Z,4.10
2022-12-24T00:38:18.966Z,3.90
2022-12-24T00:38:48.914Z,4.10
2022-12-24T00:39:18.860Z,3.80
2022-12-24T00:39:48.826Z,4.20
2022-12-24T00:40:18.816Z,4.20
2022-12-24T00:40:48.735Z,4.30
2022-12-24T00:41:18.684Z,4.30
2022-12-24T00:41:48.641Z,4.00
2022-12-24T00:42:18.603Z,3.80
2022-12-24T00:42:48.552Z,4.20
2022-12-24T00:43:18.512Z,3.80
2022-12-24T00:43:57.153Z,4.00
2022-12-24T00:44:18.400Z,4.10
2022-12-24T00:44:48.410Z,3.80
2022-12-24T00:45:18.319Z,3.50
2022-12-24T00:45:48.336Z,4.10
2022-12-24T00:46:18.261Z,3.90
2022-12-24T00:46:48.219Z,3.70
2022-12-24T00:47:18.137Z,4.20
2022-12-24T00:47:48.103Z,3.90
2022-12-24T00:48:18.048Z,3.80
2022-12-24T00:48:48.022Z,4.00
2022-12-24T00:49:17.950Z,3.90
2022-12-24T00:49:47.917Z,3.90
2022-12-24T00:50:17.849Z,4.00
2022-12-24T00:50:47.898Z,4.30
2022-12-24T00:51:17.821Z,4.20
2022-12-24T00:51:47.757Z,3.90
2022-12-24T00:52:17.668Z,4.00
2022-12-24T00:52:47.638Z,3.90
2022-12-24T00:53:17.581Z,4.00
2022-12-24T00:53:47.545Z,3.50
2022-12-24T00:54:17.504Z,3.90
2022-12-24T00:54:47.468Z,4.40
2022-12-24T00:55:17.401Z,4.30
2022-12-24T00:55:47.356Z,4.00
2022-12-24T00:56:17.296Z,4.00
2022-12-24T00:56:47.262Z,4.40
2022-12-24T00:57:17.209Z,3.90
2022-12-24T00:57:47.152Z,3.90
2022-12-24T00:58:17.102Z,4.20
2022-12-24T00:58:47.081Z,4.60
2022-12-24T00:59:17.026Z,4.20
2022-12-24T00:59:46.984Z,4.00
2022-12-24T01:00:16.930Z,3.80
2022-12-24T01:00:46.897Z,3.60
2022-12-24T01:03:18.698Z,3.80
2022-12-24T01:03:48.741Z,4.40
2022-12-24T01:04:18.628Z,4.40
2022-12-24T01:04:48.623Z,3.80
2022-12-24T01:05:18.629Z,4.30
2022-12-24T01:05:48.636Z,3.90
2022-12-24T01:06:28.133Z,4.20
2022-12-24T01:06:48.664Z,4.40
2022-12-24T01:07:18.658Z,4.40
2022-12-24T01:07:48.657Z,4.30
2022-12-24T01:08:18.696Z,4.40
2022-12-24T01:08:48.684Z,4.20
2022-12-24T01:09:18.720Z,4.20
2022-12-24T01:09:48.694Z,4.10
2022-12-24T01:10:18.706Z,4.30
2022-12-24T01:10:48.708Z,4.20
2022-12-24T01:11:18.729Z,4.10
2022-12-24T01:11:48.731Z,4.10
2022-12-24T01:12:18.775Z,4.40
2022-12-24T01:12:48.746Z,4.10
2022-12-24T01:13:18.786Z,4.10
2022-12-24T01:13:48.763Z,3.90
2022-12-24T01:14:18.776Z,4.20
2022-12-24T01:14:48.780Z,4.30
2022-12-24T01:15:18.793Z,3.80
2022-12-24T01:15:48.862Z,4.10
2022-12-24T01:16:18.951Z,4.10
2022-12-24T01:16:48.807Z,3.70
2022-12-24T01:17:18.829Z,4.40
2022-12-24T01:17:48.832Z,4.00
2022-12-24T01:18:18.839Z,4.20
2022-12-24T01:18:48.869Z,4.10
2022-12-24T01:19:18.867Z,4.00
2022-12-24T01:19:48.850Z,4.60
2022-12-24T01:20:18.883Z,3.90
2022-12-24T01:20:48.880Z,4.30
2022-12-24T01:21:18.893Z,4.10
2022-12-24T01:21:48.908Z,3.90
2022-12-24T01:22:18.892Z,4.00
2022-12-24T01:22:48.907Z,4.10
2022-12-24T01:23:18.898Z,4.00
2022-12-24T01:23:48.908Z,4.00
2022-12-24T01:24:18.912Z,4.10
2022-12-24T01:24:48.918Z,4.10
2022-12-24T01:25:18.962Z,4.20
2022-12-24T01:25:48.923Z,4.10
2022-12-24T01:26:18.942Z,3.60
2022-12-24T01:26:48.933Z,3.90
2022-12-24T01:27:18.953Z,3.90
2022-12-24T01:27:48.942Z,3.90
2022-12-24T01:28:18.967Z,3.40
2022-12-24T01:28:48.952Z,4.10
2022-12-24T01:29:18.964Z,4.10
2022-12-24T01:29:48.958Z,4.10
2022-12-24T01:30:18.992Z,3.70
2022-12-24T01:30:49.003Z,3.80
2022-12-24T01:31:19.056Z,3.80
2022-12-24T01:31:48.979Z,4.00
2022-12-24T01:32:19.010Z,3.50
2022-12-24T01:32:49.000Z,3.70
2022-12-24T01:33:27.810Z,4.40
2022-12-24T01:33:49.006Z,3.90
2022-12-24T01:34:19.035Z,3.80
2022-12-24T01:34:49.026Z,3.80
2022-12-24T01:35:19.026Z,3.60
2022-12-24T01:35:49.021Z,3.80
2022-12-24T01:36:19.047Z,4.10
2022-12-24T01:36:57.361Z,4.00
2022-12-24T01:37:19.049Z,4.00
2022-12-24T01:37:49.039Z,3.60
2022-12-24T01:38:19.049Z,3.70
2022-12-24T01:38:57.299Z,3.90
2022-12-24T01:39:19.060Z,3.80
2022-12-24T01:39:49.062Z,3.60
2022-12-24T01:40:19.078Z,3.90
2022-12-24T01:40:49.102Z,4.00
2022-12-24T01:41:19.083Z,3.80
2022-12-24T01:41:49.074Z,3.70
2022-12-24T01:42:19.086Z,3.70
2022-12-24T01:42:49.087Z,3.60
2022-12-24T01:43:19.103Z,4.10
2022-12-24T01:43:49.094Z,4.00
2022-12-24T01:44:19.122Z,3.70
2022-12-24T01:44:49.106Z,3.40
2022-12-24T01:45:19.113Z,3.80
2022-12-24T01:45:49.161Z,3.80
2022-12-24T01:46:19.210Z,4.00
2022-12-24T01:46:49.174Z,3.40
2022-12-24T01:47:19.138Z,4.20
2022-12-24T01:47:49.129Z,3.80
2022-12-24T01:48:19.158Z,3.90
2022-12-24T01:48:49.142Z,3.80
2022-12-24T01:49:19.169Z,3.60
2022-12-24T01:49:49.145Z,3.50
2022-12-24T01:50:19.165Z,4.10
2022-12-24T01:50:49.172Z,3.50
2022-12-24T01:51:19.164Z,3.90
2022-12-24T01:51:49.178Z,3.50
2022-12-24T01:52:19.201Z,3.20
2022-12-24T01:52:49.194Z,4.00
2022-12-24T01:53:19.191Z,3.40
2022-12-24T01:53:49.193Z,3.60
2022-12-24T01:54:19.188Z,3.40
2022-12-24T01:54:49.236Z,3.30
2022-12-24T01:55:19.194Z,3.90
2022-12-24T01:55:49.216Z,3.60
2022-12-24T01:56:19.224Z,3.50
2022-12-24T01:56:49.285Z,3.10
2022-12-24T01:57:19.223Z,3.60
2022-12-24T01:57:49.245Z,3.50
2022-12-24T01:58:19.226Z,3.90
2022-12-24T01:58:57.839Z,3.60
2022-12-24T01:59:19.229Z,3.60
2022-12-24T01:59:49.280Z,3.20
2022-12-24T02:00:19.230Z,3.40
2022-12-24T02:00:49.241Z,3.50
2022-12-24T02:01:19.369Z,3.30
2022-12-24T02:01:49.383Z,3.40
2022-12-24T02:02:19.504Z,3.30
2022-12-24T02:02:49.492Z,3.50
2022-12-24T02:03:19.278Z,3.60
2022-12-24T02:03:49.420Z,3.50
2022-12-24T02:04:19.286Z,3.40
2022-12-24T02:04:49.287Z,3.40
2022-12-24T02:05:19.278Z,3.30
2022-12-24T02:05:49.298Z,3.60
2022-12-24T02:06:19.285Z,3.30
2022-12-24T02:06:49.309Z,3.50
2022-12-24T02:07:19.296Z,3.10
2022-12-24T02:07:49.335Z,3.20
2022-12-24T02:08:19.300Z,3.20
2022-12-24T02:08:49.316Z,3.70
2022-12-24T02:09:19.320Z,3.40
2022-12-24T02:09:49.315Z,3.60
2022-12-24T02:10:19.318Z,3.40
2022-12-24T02:10:49.323Z,3.20
2022-12-24T02:11:19.313Z,3.40
2022-12-24T02:11:49.341Z,3.50
2022-12-24T02:12:19.343Z,3.50
2022-12-24T02:12:49.340Z,3.00
2022-12-24T02:13:19.339Z,3.60
2022-12-24T02:13:49.349Z,3.40
2022-12-24T02:14:19.359Z,3.30
2022-12-24T02:14:49.357Z,3.20
2022-12-24T02:15:19.350Z,3.50
2022-12-24T02:15:49.411Z,3.20
2022-12-24T02:16:19.432Z,3.40
2022-12-24T02:16:49.384Z,3.00
2022-12-24T02:17:19.358Z,3.50
2022-12-24T02:17:49.375Z,3.30
2022-12-24T02:18:19.374Z,3.60
2022-12-24T02:18:49.373Z,3.10
2022-12-24T02:19:19.380Z,3.50
2022-12-24T02:19:49.384Z,3.30
2022-12-24T02:20:19.395Z,3.20
2022-12-24T02:20:49.394Z,3.40
2022-12-24T02:21:19.419Z,3.30
2022-12-24T02:21:49.403Z,3.40
2022-12-24T02:22:19.395Z,3.20
2022-12-24T02:22:49.406Z,3.20
2022-12-24T02:23:19.423Z,3.00
2022-12-24T02:23:49.415Z,3.30
2022-12-24T02:24:19.411Z,3.10
2022-12-24T02:24:49.423Z,3.20
2022-12-24T02:25:19.446Z,3.00
2022-12-24T02:25:49.435Z,2.90
2022-12-24T02:26:19.439Z,3.20
2022-12-24T02:26:49.450Z,3.10
2022-12-24T02:27:19.455Z,3.20
2022-12-24T02:27:49.457Z,3.10
2022-12-24T02:28:19.481Z,3.20
2022-12-24T02:28:49.472Z,3.50
2022-12-24T02:29:19.490Z,2.90
2022-12-24T02:29:49.483Z,3.00
2022-12-24T02:30:19.484Z,3.30
2022-12-24T02:30:49.540Z,2.90
2022-12-24T02:31:19.582Z,3.40
2022-12-24T02:31:49.542Z,3.00
2022-12-24T02:32:19.503Z,3.50
2022-12-24T02:32:49.548Z,3.20
2022-12-24T02:33:19.520Z,3.00
2022-12-24T02:33:49.536Z,3.20
2022-12-24T02:34:19.533Z,3.00
2022-12-24T02:34:49.578Z,3.20
2022-12-24T02:35:19.554Z,3.00
2022-12-24T02:35:49.595Z,3.10
2022-12-24T02:36:19.557Z,2.90
2022-12-24T02:36:49.620Z,3.10
2022-12-24T02:37:19.587Z,3.20
2022-12-24T02:37:49.610Z,3.00
2022-12-24T02:38:19.603Z,3.20
2022-12-24T02:38:49.640Z,3.20
2022-12-24T02:39:19.599Z,3.10
2022-12-24T02:39:49.613Z,3.00
2022-12-24T02:40:19.612Z,3.30
2022-12-24T02:40:49.626Z,3.10
2022-12-24T02:41:19.622Z,3.10
2022-12-24T02:41:49.639Z,3.00
2022-12-24T02:42:19.635Z,3.40
2022-12-24T02:42:49.667Z,2.60
2022-12-24T02:43:19.653Z,2.70
2022-12-24T02:43:49.685Z,3.20
2022-12-24T02:44:19.664Z,2.80
2022-12-24T02:44:49.680Z,2.90
2022-12-24T02:45:19.675Z,3.00
2022-12-24T02:45:55.269Z,3.10
2022-12-24T02:46:20.719Z,3.00
2022-12-24T02:46:49.778Z,3.10
2022-12-24T02:47:19.704Z,3.10
2022-12-24T02:47:49.686Z,2.90
2022-12-24T02:48:19.717Z,3.10
2022-12-24T02:48:49.701Z,3.10
2022-12-24T02:49:19.706Z,2.90
2022-12-24T02:49:49.722Z,3.50
2022-12-24T02:50:19.712Z,3.20
2022-12-24T02:50:49.716Z,3.20
2022-12-24T02:51:19.719Z,3.00
2022-12-24T02:51:49.732Z,2.90
2022-12-24T02:52:19.743Z,3.20
2022-12-24T02:52:49.776Z,3.20
2022-12-24T02:53:19.737Z,2.90
2022-12-24T02:53:49.743Z,2.80
2022-12-24T02:54:19.768Z,3.10
2022-12-24T02:54:49.756Z,3.10
2022-12-24T02:55:19.755Z,3.20
2022-12-24T02:55:49.783Z,2.90
2022-12-24T02:56:19.775Z,2.80
2022-12-24T02:56:49.783Z,3.00
2022-12-24T02:57:19.806Z,3.00
2022-12-24T02:57:49.809Z,3.00
2022-12-24T02:58:19.802Z,2.70
2022-12-24T02:58:49.814Z,3.20
2022-12-24T02:59:19.814Z,2.90
2022-12-24T02:59:49.822Z,3.40
2022-12-24T03:00:19.838Z,2.90
2022-12-24T03:00:49.914Z,2.70
2022-12-24T03:01:19.962Z,2.60
2022-12-24T03:01:49.984Z,3.00
2022-12-24T03:02:20.031Z,2.70
2022-12-24T03:02:49.953Z,2.90
2022-12-24T03:03:19.851Z,2.70
2022-12-24T03:03:49.877Z,2.90
2022-12-24T03:04:19.914Z,2.70
2022-12-24T03:04:49.898Z,2.90
2022-12-24T03:05:19.892Z,2.90
2022-12-24T03:05:49.892Z,2.40
2022-12-24T03:06:19.923Z,2.70
2022-12-24T03:06:49.911Z,3.10
2022-12-24T03:07:19.905Z,3.10
2022-12-24T03:07:49.920Z,2.80
2022-12-24T03:08:19.938Z,3.00
2022-12-24T03:08:49.926Z,3.00
2022-12-24T03:09:19.928Z,3.10
2022-12-24T03:09:50.019Z,3.10
2022-12-24T03:10:19.935Z,3.00
2022-12-24T03:10:49.957Z,2.90
2022-12-24T03:11:19.953Z,2.90
2022-12-24T03:11:49.961Z,2.70
2022-12-24T03:12:19.963Z,2.90
2022-12-24T03:12:50.017Z,2.70
2022-12-24T03:13:19.994Z,2.70
2022-12-24T03:13:49.992Z,2.80
2022-12-24T03:14:19.988Z,2.80
2022-12-24T03:14:50.004Z,2.70
2022-12-24T03:15:20.021Z,3.00
2022-12-24T03:15:50.051Z,2.70
2022-12-24T03:16:20.049Z,2.80
2022-12-24T03:16:50.120Z,2.80
2022-12-24T03:17:20.028Z,2.90
2022-12-24T03:17:50.050Z,2.90
2022-12-24T03:18:20.075Z,2.80
2022-12-24T03:18:50.048Z,2.70
2022-12-24T03:19:20.045Z,2.90
2022-12-24T03:19:50.054Z,3.10
2022-12-24T03:20:20.077Z,2.70
2022-12-24T03:20:50.070Z,2.80
2022-12-24T03:21:20.068Z,2.80
2022-12-24T03:21:50.080Z,2.60
2022-12-24T03:22:20.068Z,2.70
2022-12-24T03:22:50.078Z,2.70
2022-12-24T03:23:20.103Z,2.60
2022-12-24T03:23:50.093Z,2.70
2022-12-24T03:24:20.093Z,2.70
2022-12-24T03:24:50.110Z,2.60
2022-12-24T03:25:20.124Z,2.90
2022-12-24T03:25:50.119Z,2.80
2022-12-24T03:26:20.119Z,2.70
2022-12-24T03:26:50.172Z,2.70
2022-12-24T03:27:20.125Z,2.90
2022-12-24T03:27:50.179Z,2.90
2022-12-24T03:28:20.137Z,2.80
2022-12-24T03:28:50.167Z,2.70
2022-12-24T03:29:20.150Z,2.70
2022-12-24T03:29:50.193Z,2.90
2022-12-24T03:30:20.165Z,2.90
2022-12-24T03:30:50.191Z,2.70
2022-12-24T03:31:20.307Z,2.30
2022-12-24T03:31:50.327Z,2.60
2022-12-24T03:32:20.211Z,3.00
2022-12-24T03:32:50.245Z,2.80
2022-12-24T03:33:20.205Z,2.60
2022-12-24T03:33:50.244Z,2.70
2022-12-24T03:34:20.224Z,2.80
2022-12-24T03:34:50.236Z,2.90
2022-12-24T03:35:20.238Z,2.80
2022-12-24T03:35:50.267Z,2.70
2022-12-24T03:36:20.270Z,2.60
2022-12-24T03:36:50.260Z,3.00
2022-12-24T03:37:20.263Z,2.90
2022-12-24T03:37:50.313Z,2.70
2022-12-24T03:38:20.280Z,2.40
2022-12-24T03:38:50.287Z,2.40
2022-12-24T03:39:20.298Z,2.50
2022-12-24T03:39:50.297Z,2.50
2022-12-24T03:40:20.302Z,2.60
2022-12-24T03:40:50.326Z,2.70
2022-12-24T03:41:20.300Z,2.70
2022-12-24T03:41:50.327Z,2.80
2022-12-24T03:42:20.309Z,2.70
2022-12-24T03:42:50.321Z,2.40
2022-12-24T03:43:20.324Z,2.50
2022-12-24T03:43:50.327Z,2.90
2022-12-24T03:44:20.354Z,2.80
2022-12-24T03:44:50.337Z,2.50
2022-12-24T03:45:20.360Z,2.60
2022-12-24T03:45:50.394Z,2.70
2022-12-24T03:46:20.391Z,2.60
2022-12-24T03:46:50.347Z,2.40
2022-12-24T03:47:20.357Z,2.50
2022-12-24T03:47:50.370Z,2.80
2022-12-24T03:48:20.347Z,2.70
2022-12-24T03:48:50.364Z,2.60
2022-12-24T03:49:20.373Z,2.40
2022-12-24T03:49:50.376Z,2.40
2022-12-24T03:50:20.361Z,2.30
2022-12-24T03:50:50.385Z,2.60
2022-12-24T03:51:20.376Z,2.60
2022-12-24T03:51:50.386Z,2.50
2022-12-24T03:52:20.416Z,2.50
2022-12-24T03:52:50.381Z,2.80
2022-12-24T03:53:20.394Z,2.40
2022-12-24T03:53:50.389Z,2.50
2022-12-24T03:54:20.404Z,2.70
2022-12-24T03:54:50.397Z,2.20
2022-12-24T03:55:20.407Z,2.50
2022-12-24T03:55:50.421Z,2.60
2022-12-24T03:56:20.422Z,2.90
2022-12-24T03:56:50.424Z,2.50
2022-12-24T03:57:20.421Z,2.60
2022-12-24T03:57:50.423Z,2.50
2022-12-24T03:58:20.445Z,2.40
2022-12-24T03:58:50.423Z,2.70
2022-12-24T03:59:20.447Z,2.70
2022-12-24T03:59:50.419Z,2.50
2022-12-24T04:00:20.434Z,2.50
2022-12-24T04:00:50.493Z,2.50
2022-12-24T04:01:20.617Z,2.60
2022-12-24T04:01:50.739Z,2.50
2022-12-24T04:02:20.571Z,2.60
2022-12-24T04:02:50.644Z,2.40
2022-12-24T04:03:20.584Z,2.60
2022-12-24T04:03:50.463Z,2.20
2022-12-24T04:04:20.518Z,2.70
2022-12-24T04:04:50.477Z,2.30
2022-12-24T04:05:20.490Z,2.50
2022-12-24T04:05:50.506Z,2.50
2022-12-24T04:06:20.518Z,2.50
2022-12-24T04:06:50.507Z,2.30
2022-12-24T04:07:20.522Z,2.30
2022-12-24T04:07:50.524Z,2.30
2022-12-24T04:08:20.547Z,2.40
2022-12-24T04:08:50.540Z,2.70
2022-12-24T04:09:20.544Z,2.50
2022-12-24T04:09:50.540Z,2.50
2022-12-24T04:10:20.570Z,2.30
2022-12-24T04:10:50.566Z,2.30
2022-12-24T04:11:20.579Z,2.40
2022-12-24T04:11:50.588Z,2.30
2022-12-24T04:12:20.574Z,2.30
2022-12-24T04:12:50.566Z,2.70
2022-12-24T04:13:20.580Z,2.20
2022-12-24T04:13:50.574Z,2.50
2022-12-24T04:14:20.588Z,2.50
2022-12-24T04:14:50.607Z,2.40
2022-12-24T04:15:20.628Z,2.40
2022-12-24T04:15:50.599Z,2.40
2022-12-24T04:16:20.717Z,2.30
2022-12-24T04:16:50.682Z,2.10
2022-12-24T04:17:20.630Z,2.50
2022-12-24T04:17:50.630Z,2.40
2022-12-24T04:18:20.642Z,2.30
2022-12-24T04:18:50.635Z,2.30
2022-12-24T04:19:20.649Z,2.50
2022-12-24T04:19:50.651Z,2.40
2022-12-24T04:20:20.699Z,2.20
2022-12-24T04:20:50.659Z,2.10
2022-12-24T04:21:20.687Z,2.30
2022-12-24T04:21:50.690Z,2.30
2022-12-24T04:22:20.687Z,2.30
2022-12-24T04:22:50.700Z,2.10
2022-12-24T04:23:20.696Z,2.30
2022-12-24T04:23:50.699Z,2.50
2022-12-24T04:24:20.714Z,2.10
2022-12-24T04:24:50.708Z,2.40
2022-12-24T04:25:20.717Z,2.10
2022-12-24T04:25:50.722Z,2.30
2022-12-24T04:26:20.767Z,2.10
2022-12-24T04:26:50.730Z,2.30
2022-12-24T04:27:25.213Z,2.30
2022-12-24T04:27:51.741Z,2.30
2022-12-24T04:28:20.753Z,2.10
2022-12-24T04:28:50.753Z,2.20
2022-12-24T04:29:20.761Z,2.20
2022-12-24T04:29:50.785Z,2.40
2022-12-24T04:30:20.785Z,2.20
2022-12-24T04:30:50.772Z,2.40
2022-12-24T04:31:20.900Z,2.30
2022-12-24T04:31:50.865Z,2.20
2022-12-24T04:32:20.845Z,2.40
2022-12-24T04:32:50.801Z,2.40
2022-12-24T04:33:20.847Z,2.20
2022-12-24T04:33:50.813Z,2.20
2022-12-24T04:34:20.831Z,2.10
2022-12-24T04:34:50.844Z,2.50
2022-12-24T04:35:20.850Z,2.10
2022-12-24T04:35:50.846Z,2.20
2022-12-24T04:36:20.865Z,2.20
2022-12-24T04:36:50.880Z,2.10
2022-12-24T04:37:20.907Z,2.20
2022-12-24T04:37:50.886Z,2.40
2022-12-24T04:38:20.902Z,2.40
2022-12-24T04:38:50.894Z,2.40
2022-12-24T04:39:20.939Z,2.10
2022-12-24T04:39:50.911Z,2.10
2022-12-24T04:40:20.917Z,2.30
2022-12-24T04:40:50.926Z,2.20
2022-12-24T04:41:24.314Z,2.20
2022-12-24T04:41:50.949Z,2.60
2022-12-24T04:42:20.947Z,1.90
2022-12-24T04:42:50.998Z,2.20
2022-12-24T04:43:20.959Z,2.30
2022-12-24T04:43:50.966Z,2.30
2022-12-24T04:44:20.976Z,2.10
2022-12-24T04:44:50.965Z,2.40
2022-12-24T04:45:20.984Z,2.10
2022-12-24T04:45:51.071Z,2.20
2022-12-24T04:46:21.083Z,2.10
2022-12-24T04:46:51.033Z,2.20
2022-12-24T04:47:21.011Z,2.00
2022-12-24T04:47:51.014Z,2.20
2022-12-24T04:48:21.027Z,2.20
2022-12-24T04:48:51.075Z,2.20
2022-12-24T04:49:21.036Z,2.30
2022-12-24T04:49:51.070Z,1.90
2022-12-24T04:50:21.069Z,2.00
2022-12-24T04:50:51.047Z,2.20
2022-12-24T04:51:21.065Z,2.40
2022-12-24T04:51:51.068Z,2.20
2022-12-24T04:52:21.084Z,2.10
2022-12-24T04:52:51.085Z,2.10
2022-12-24T04:53:21.100Z,1.90
2022-12-24T04:53:51.114Z,2.00
2022-12-24T04:54:21.132Z,2.10
2022-12-24T04:54:51.111Z,2.10
2022-12-24T04:55:21.132Z,1.90
2022-12-24T04:55:51.122Z,1.80
2022-12-24T04:56:21.144Z,2.20
2022-12-24T04:56:51.141Z,1.90
2022-12-24T04:57:21.157Z,2.20
2022-12-24T04:57:53.131Z,2.20
2022-12-24T04:58:21.183Z,2.20
2022-12-24T04:58:51.149Z,2.00
2022-12-24T04:59:21.185Z,2.00
2022-12-24T04:59:51.159Z,2.00
2022-12-24T05:00:21.168Z,1.90
2022-12-24T05:00:51.191Z,2.00
2022-12-24T05:01:21.384Z,2.00
2022-12-24T05:01:51.323Z,2.00
2022-12-24T05:02:21.491Z,1.70
2022-12-24T05:02:51.313Z,2.00
2022-12-24T05:03:21.301Z,1.80
2022-12-24T05:03:51.232Z,1.70
2022-12-24T05:04:21.229Z,1.80
2022-12-24T05:04:51.230Z,1.90
2022-12-24T05:05:21.238Z,1.90
2022-12-24T05:05:55.146Z,1.80
2022-12-24T05:06:22.257Z,2.00
2022-12-24T05:06:51.252Z,2.00
2022-12-24T05:07:21.274Z,1.80
2022-12-24T05:07:51.269Z,1.90
2022-12-24T05:08:21.306Z,2.10
2022-12-24T05:08:51.280Z,1.80
2022-12-24T05:09:21.310Z,1.90
2022-12-24T05:09:51.301Z,2.10
2022-12-24T05:10:21.321Z,1.80
2022-12-24T05:10:51.312Z,1.80
2022-12-24T05:11:21.349Z,2.00
2022-12-24T05:11:51.343Z,1.80
2022-12-24T05:12:21.355Z,2.00
2022-12-24T05:12:51.351Z,2.10
2022-12-24T05:13:21.366Z,1.90
2022-12-24T05:13:51.383Z,1.60
2022-12-24T05:14:21.370Z,2.00
2022-12-24T05:14:51.369Z,1.80
2022-12-24T05:15:21.429Z,2.00
2022-12-24T05:15:51.390Z,2.10
2022-12-24T05:16:21.652Z,1.80
2022-12-24T05:16:51.457Z,1.80
2022-12-24T05:17:21.430Z,1.70
2022-12-24T05:17:51.439Z,1.70
2022-12-24T05:18:21.434Z,1.80
2022-12-24T05:18:51.447Z,1.80
2022-12-24T05:19:21.477Z,1.80
2022-12-24T05:19:51.453Z,1.80
2022-12-24T05:20:21.517Z,1.80
2022-12-24T05:20:51.472Z,1.90
2022-12-24T05:21:21.651Z,2.00
2022-12-24T05:21:51.490Z,1.80
2022-12-24T05:22:21.507Z,1.70
2022-12-24T05:22:51.521Z,1.70
2022-12-24T05:23:21.560Z,1.80
2022-12-24T05:23:51.522Z,1.70
2022-12-24T05:24:21.540Z,1.80
2022-12-24T05:24:51.548Z,1.90
2022-12-24T05:25:21.601Z,2.00
2022-12-24T05:25:51.538Z,2.00
2022-12-24T05:26:21.560Z,1.90
2022-12-24T05:26:51.513Z,1.90
2022-12-24T05:27:21.557Z,1.90
2022-12-24T05:27:51.709Z,1.60
2022-12-24T05:28:21.533Z,1.70
2022-12-24T05:28:51.557Z,1.60
2022-12-24T05:29:21.565Z,1.90
2022-12-24T05:29:51.557Z,1.80
2022-12-24T05:30:21.552Z,1.70
2022-12-24T05:30:51.618Z,1.70
2022-12-24T05:31:21.602Z,1.70
2022-12-24T05:31:51.569Z,1.80
2022-12-24T05:32:21.597Z,1.90
2022-12-24T05:32:51.580Z,1.60
2022-12-24T05:33:21.587Z,1.70
2022-12-24T05:33:51.589Z,1.80
2022-12-24T05:34:21.603Z,1.80
2022-12-24T05:34:51.593Z,1.70
2022-12-24T05:35:21.597Z,1.60
2022-12-24T05:35:51.612Z,1.80
2022-12-24T05:36:21.641Z,1.70
2022-12-24T05:36:51.611Z,1.90
2022-12-24T05:37:21.615Z,1.80
2022-12-24T05:37:51.620Z,1.80
2022-12-24T05:38:21.646Z,1.70
2022-12-24T05:38:51.652Z,1.70
2022-12-24T05:39:21.655Z,1.70
2022-12-24T05:39:51.646Z,1.60
2022-12-24T05:40:21.667Z,1.70
2022-12-24T05:40:51.654Z,1.70
2022-12-24T05:41:21.686Z,1.70
2022-12-24T05:41:51.691Z,1.50
2022-12-24T05:42:21.693Z,1.60
2022-12-24T05:42:51.675Z,1.50
2022-12-24T05:43:21.688Z,1.70
2022-12-24T05:43:51.686Z,1.70
2022-12-24T05:44:21.737Z,1.60
2022-12-24T05:44:51.719Z,1.70
2022-12-24T05:45:21.707Z,1.70
2022-12-24T05:45:51.726Z,1.50
2022-12-24T05:46:21.861Z,1.70
2022-12-24T05:46:51.733Z,1.70
2022-12-24T05:47:21.737Z,1.50
2022-12-24T05:47:51.738Z,1.70
2022-12-24T05:48:21.754Z,1.50
2022-12-24T05:48:51.750Z,1.60
2022-12-24T05:49:21.765Z,1.40
2022-12-24T05:49:51.788Z,1.50
2022-12-24T05:50:21.775Z,1.60
2022-12-24T05:50:51.780Z,1.60
2022-12-24T05:51:21.816Z,1.40
2022-12-24T05:51:51.779Z,1.50
2022-12-24T05:52:21.810Z,1.80
2022-12-24T05:52:51.795Z,1.70
2022-12-24T05:53:21.814Z,1.60
2022-12-24T05:53:51.830Z,1.60
2022-12-24T05:54:21.816Z,1.50
2022-12-24T05:54:51.840Z,1.60
2022-12-24T05:55:21.859Z,1.70
2022-12-24T05:55:51.842Z,1.70
2022-12-24T05:56:21.841Z,1.60
2022-12-24T05:56:51.847Z,1.50
2022-12-24T05:57:21.879Z,1.60
2022-12-24T05:57:51.861Z,1.80
2022-12-24T05:58:21.898Z,1.40
2022-12-24T05:58:51.869Z,1.30
2022-12-24T05:59:21.905Z,1.40
2022-12-24T05:59:51.894Z,1.70
2022-12-24T06:00:21.921Z,1.40
2022-12-24T06:00:51.899Z,1.50
2022-12-24T06:01:22.051Z,1.60
2022-12-24T06:01:52.085Z,1.50
2022-12-24T06:02:21.962Z,1.70
2022-12-24T06:02:52.017Z,1.40
2022-12-24T06:03:21.945Z,1.30
2022-12-24T06:03:51.996Z,1.50
2022-12-24T06:04:28.337Z,1.50
2022-12-24T06:04:53.043Z,1.30
2022-12-24T06:05:21.988Z,1.50
2022-12-24T06:05:51.996Z,1.50
2022-12-24T06:06:22.008Z,1.70
2022-12-24T06:06:52.015Z,1.40
2022-12-24T06:07:22.010Z,1.40
2022-12-24T06:07:52.069Z,1.50
2022-12-24T06:08:22.037Z,1.30
2022-12-24T06:08:52.072Z,1.40
2022-12-24T06:09:22.044Z,1.50
2022-12-24T06:09:52.074Z,1.50
2022-12-24T06:10:22.108Z,1.70
2022-12-24T06:10:52.082Z,1.40
2022-12-24T06:11:22.088Z,1.50
2022-12-24T06:11:52.115Z,1.30
2022-12-24T06:12:22.095Z,1.60
2022-12-24T06:12:52.109Z,1.30
2022-12-24T06:13:22.102Z,1.50
2022-12-24T06:13:52.121Z,1.40
2022-12-24T06:14:22.140Z,1.50
2022-12-24T06:14:52.156Z,1.30
2022-12-24T06:15:24.062Z,1.30
2022-12-24T06:15:52.256Z,1.60
2022-12-24T06:16:22.269Z,1.60
2022-12-24T06:16:52.160Z,1.40
2022-12-24T06:17:22.170Z,1.40
2022-12-24T06:17:52.172Z,1.50
2022-12-24T06:18:22.168Z,1.40
2022-12-24T06:18:52.190Z,1.40
2022-12-24T06:19:22.180Z,1.50
2022-12-24T06:19:52.200Z,1.50
2022-12-24T06:20:22.183Z,1.50
2022-12-24T06:20:52.240Z,1.70
2022-12-24T06:21:22.205Z,1.30
2022-12-24T06:21:52.215Z,1.30
2022-12-24T06:22:22.214Z,1.50
2022-12-24T06:22:52.231Z,1.50
2022-12-24T06:23:22.222Z,1.30
2022-12-24T06:23:52.292Z,1.20
2022-12-24T06:24:22.240Z,1.40
2022-12-24T06:24:52.253Z,1.50
2022-12-24T06:25:22.245Z,1.40
2022-12-24T06:25:52.273Z,1.40
2022-12-24T06:26:22.278Z,1.50
2022-12-24T06:26:52.291Z,1.30
2022-12-24T06:27:22.272Z,1.70
2022-12-24T06:27:52.281Z,1.50
2022-12-24T06:28:22.279Z,1.40
2022-12-24T06:28:52.340Z,1.50
2022-12-24T06:29:22.310Z,1.40
2022-12-24T06:29:52.299Z,1.50
2022-12-24T06:30:22.294Z,1.60
2022-12-24T06:30:57.119Z,1.50
2022-12-24T06:31:23.497Z,1.70
2022-12-24T06:31:52.395Z,1.10
2022-12-24T06:32:22.324Z,1.40
2022-12-24T06:32:52.344Z,1.30
2022-12-24T06:33:22.337Z,1.20
2022-12-24T06:33:52.366Z,1.50
2022-12-24T06:34:22.361Z,1.30
2022-12-24T06:34:52.361Z,1.30
2022-12-24T06:35:22.350Z,1.30
2022-12-24T06:35:52.368Z,1.30
2022-12-24T06:36:22.393Z,1.50
2022-12-24T06:36:52.374Z,1.40
2022-12-24T06:37:22.383Z,1.30
2022-12-24T06:37:52.379Z,1.30
2022-12-24T06:38:22.387Z,1.50
2022-12-24T06:38:52.387Z,1.50
2022-12-24T06:39:22.389Z,1.50
2022-12-24T06:39:52.391Z,1.50
2022-12-24T06:40:22.387Z,1.40
2022-12-24T06:40:52.411Z,1.40
2022-12-24T06:41:22.400Z,1.20